Time;durP1;ratioP1;P1;durP2;ratioP2;P2;SDS_P1;SDS_P2;PMS_P1;PMS_P2;Temp;Humidity;BMP_temperature;BMP_pressure;BME280_temperature;BME280_humidity;BME280_pressure;Samples;Min_cycle;Max_cycle;Signal;HPM_P1;HPM_P2
2023/09/01 00:00:48;;;;;;;9.18;3.80;;;;;;;-140.66;100.00;55571.53;5098814;28;20028;-75
2023/09/01 00:03:36;;;;;;;6.47;3.97;;;;;;;-140.66;100.00;55571.53;5114367;28;20032;-76
2023/09/01 00:06:22;;;;;;;9.13;4.30;;;;;;;-140.66;100.00;55571.53;5114362;28;20033;-75
2023/09/01 00:09:08;;;;;;;6.90;4.15;;;;;;;-140.66;100.00;55571.53;5114142;28;20095;-75
2023/09/01 00:11:53;;;;;;;8.20;4.22;;;;;;;-140.66;100.00;55571.53;5114391;28;20445;-74
2023/09/01 00:14:39;;;;;;;12.50;4.40;;;;;;;-140.66;100.00;55571.53;5099750;28;20024;-75
2023/09/01 00:17:25;;;;;;;5.70;4.10;;;;;;;-140.66;100.00;55571.53;5082833;28;20441;-76
2023/09/01 00:20:11;;;;;;;9.15;3.72;;;;;;;-140.66;100.00;55571.53;5114543;28;20118;-75
2023/09/01 00:22:57;;;;;;;7.10;4.40;;;;;;;-140.66;100.00;55571.53;5113928;28;20034;-77
2023/09/01 00:25:43;;;;;;;6.40;4.60;;;;;;;-140.66;100.00;55571.53;5114115;28;20026;-76
2023/09/01 00:28:29;;;;;;;5.95;4.70;;;;;;;-140.66;100.00;55571.53;5113439;28;20034;-76
2023/09/01 00:31:17;;;;;;;6.10;4.10;;;;;;;-140.66;100.00;55571.53;5114682;28;20035;-75
2023/09/01 00:34:05;;;;;;;7.80;4.50;;;;;;;-140.66;100.00;55571.53;5099155;28;20107;-76
2023/09/01 00:36:51;;;;;;;6.30;4.13;;;;;;;-140.66;100.00;55571.53;5113749;28;20027;-76
2023/09/01 00:39:37;;;;;;;5.63;4.43;;;;;;;-140.66;100.00;55571.53;5114185;28;20113;-75
2023/09/01 00:42:22;;;;;;;7.65;4.35;;;;;;;-140.66;100.00;55571.53;5098744;28;20077;-76
2023/09/01 00:45:08;;;;;;;6.55;3.95;;;;;;;-140.66;100.00;55571.53;5113136;28;20048;-74
2023/09/01 00:47:55;;;;;;;5.65;4.78;;;;;;;-140.66;100.00;55571.53;5113202;28;20451;-75
2023/09/01 00:50:43;;;;;;;6.65;4.35;;;;;;;-140.66;100.00;55571.53;5114136;28;20019;-77
2023/09/01 00:53:29;;;;;;;8.15;4.72;;;;;;;-140.66;100.00;55571.53;5114358;28;20028;-76
2023/09/01 00:56:14;;;;;;;9.55;4.50;;;;;;;-140.66;100.00;55571.53;5114982;28;20365;-75
2023/09/01 00:59:00;;;;;;;6.90;4.70;;;;;;;-140.66;100.00;55571.53;5117517;28;20023;-75
2023/09/01 01:01:46;;;;;;;5.88;4.97;;;;;;;-140.66;100.00;55571.53;5100253;28;20023;-76
2023/09/01 01:04:33;;;;;;;8.20;5.05;;;;;;;-140.66;100.00;55571.53;5099032;28;20031;-76
2023/09/01 01:07:40;;;;;;;5.00;4.50;;;;;;;-140.66;100.00;55571.53;5113148;28;20090;-76
2023/09/01 01:10:59;;;;;;;8.27;4.80;;;;;;;-140.66;100.00;55571.53;5113585;28;20444;-75
2023/09/01 01:13:49;;;;;;;6.05;4.90;;;;;;;-140.66;100.00;55571.53;5098798;28;20467;-75
2023/09/01 01:16:35;;;;;;;8.90;5.05;;;;;;;-140.66;100.00;55571.53;5113513;28;20085;-76
2023/09/01 01:19:24;;;;;;;7.00;5.00;;;;;;;-140.66;100.00;55571.53;5098286;28;20024;-76
2023/09/01 01:22:10;;;;;;;7.32;5.60;;;;;;;-140.66;100.00;55571.53;5098981;28;20023;-75
2023/09/01 01:24:56;;;;;;;8.80;5.38;;;;;;;-140.66;100.00;55571.53;5098766;28;20032;-75
2023/09/01 01:27:43;;;;;;;7.75;5.53;;;;;;;-140.66;100.00;55571.53;5112133;28;20024;-76
2023/09/01 01:30:29;;;;;;;6.45;5.25;;;;;;;-140.66;100.00;55571.53;5118234;28;20033;-76
2023/09/01 01:33:39;;;;;;;6.88;5.50;;;;;;;-140.66;100.00;55571.53;5096227;28;20035;-76
2023/09/01 01:36:34;;;;;;;6.55;5.43;;;;;;;-140.66;100.00;55571.53;5104154;28;20019;-76
2023/09/01 01:39:26;;;;;;;7.45;5.60;;;;;;;-140.66;100.00;55571.53;5102281;28;20459;-76
2023/09/01 01:42:18;;;;;;;7.20;5.60;;;;;;;-140.66;100.00;55571.53;5115905;28;20106;-75
2023/09/01 01:45:06;;;;;;;7.72;6.03;;;;;;;-140.66;100.00;55571.53;5116032;28;20083;-76
2023/09/01 01:47:53;;;;;;;7.05;5.63;;;;;;;-140.66;100.00;55571.53;5117346;28;20106;-75
2023/09/01 01:50:40;;;;;;;6.07;5.38;;;;;;;-140.66;100.00;55571.53;5117069;28;20115;-75
2023/09/01 01:53:26;;;;;;;5.68;4.90;;;;;;;-140.66;100.00;55571.53;5101912;28;20106;-76
2023/09/01 01:56:13;;;;;;;7.03;5.68;;;;;;;-140.66;100.00;55571.53;5117712;28;20032;-76
2023/09/01 01:58:58;;;;;;;7.00;6.00;;;;;;;-140.66;100.00;55571.53;5103766;28;20074;-76
2023/09/01 02:01:44;;;;;;;9.85;6.35;;;;;;;-140.66;100.00;55571.53;5101807;28;20468;-75
2023/09/01 02:04:30;;;;;;;7.07;6.15;;;;;;;-140.66;100.00;55571.53;5102874;28;20032;-76
2023/09/01 02:07:15;;;;;;;10.05;6.97;;;;;;;-140.66;100.00;55571.53;5102274;28;20027;-75
2023/09/01 02:10:08;;;;;;;8.00;6.55;;;;;;;-140.66;100.00;55571.53;5103313;28;20116;-74
2023/09/01 02:12:54;;;;;;;10.40;6.72;;;;;;;-140.66;100.00;55571.53;5116487;28;20034;-74
2023/09/01 02:15:40;;;;;;;8.20;6.35;;;;;;;-140.66;100.00;55571.53;5116452;28;20505;-74
2023/09/01 02:18:26;;;;;;;8.43;6.55;;;;;;;-140.66;100.00;55571.53;5101734;28;20042;-74
2023/09/01 02:21:22;;;;;;;11.68;6.97;;;;;;;-140.66;100.00;55571.53;5117136;28;20023;-75
2023/09/01 02:24:08;;;;;;;9.27;7.15;;;;;;;-140.66;100.00;55571.53;5101755;28;20027;-74
2023/09/01 02:26:54;;;;;;;9.65;7.45;;;;;;;-140.66;100.00;55571.53;5101913;28;20034;-74
2023/09/01 02:29:40;;;;;;;9.10;6.78;;;;;;;-140.66;100.00;55571.53;5116631;28;20023;-75
2023/09/01 02:32:26;;;;;;;7.75;6.95;;;;;;;-140.66;100.00;55571.53;5115944;28;20054;-76
2023/09/01 02:35:12;;;;;;;8.77;7.13;;;;;;;-140.66;100.00;55571.53;5101374;28;20034;-73
2023/09/01 02:37:58;;;;;;;8.55;7.30;;;;;;;-140.66;100.00;55571.53;5115695;28;20074;-73
2023/09/01 02:40:43;;;;;;;8.05;7.25;;;;;;;-140.66;100.00;55571.53;5115941;28;20027;-74
2023/09/01 02:43:30;;;;;;;8.75;7.47;;;;;;;-140.66;100.00;55571.53;5115635;28;20069;-73
2023/09/01 02:46:15;;;;;;;8.75;7.50;;;;;;;-140.66;100.00;55571.53;5101266;28;20088;-74
2023/09/01 02:49:01;;;;;;;8.98;7.50;;;;;;;-140.66;100.00;55571.53;5115295;28;20057;-74
2023/09/01 02:51:48;;;;;;;8.10;7.30;;;;;;;-140.66;100.00;55571.53;5115425;28;20033;-75
2023/09/01 02:54:34;;;;;;;8.18;7.38;;;;;;;-140.66;100.00;55571.53;5114891;28;20031;-74
2023/09/01 02:57:20;;;;;;;8.50;7.60;;;;;;;-140.66;100.00;55571.53;5116264;28;20023;-74
2023/09/01 03:00:14;;;;;;;10.20;7.60;;;;;;;-140.66;100.00;55571.53;5114993;28;20023;-74
2023/09/01 03:03:00;;;;;;;11.27;7.90;;;;;;;-140.66;100.00;55571.53;5100430;28;20089;-75
2023/09/01 03:05:48;;;;;;;8.35;7.55;;;;;;;-140.66;100.00;55571.53;5114262;28;20445;-74
2023/09/01 03:08:37;;;;;;;8.38;7.13;;;;;;;-140.66;100.00;55571.53;5115461;28;20058;-74
2023/09/01 03:11:23;;;;;;;10.07;7.75;;;;;;;-140.66;100.00;55571.53;5100653;28;20088;-74
2023/09/01 03:14:09;;;;;;;7.85;7.05;;;;;;;-140.66;100.00;55571.53;5099513;28;20028;-75
2023/09/01 03:16:56;;;;;;;8.00;7.20;;;;;;;-140.66;100.00;55571.53;5116585;28;20031;-75
2023/09/01 03:19:41;;;;;;;8.57;7.78;;;;;;;-140.66;100.00;55571.53;5114448;28;20024;-73
2023/09/01 03:22:27;;;;;;;9.80;7.55;;;;;;;-140.66;100.00;55571.53;5101419;28;20027;-75
2023/09/01 03:25:13;;;;;;;10.85;7.70;;;;;;;-140.66;100.00;55571.53;5115802;28;20409;-74
2023/09/01 03:27:59;;;;;;;11.45;7.97;;;;;;;-140.66;100.00;55571.53;5115750;28;20034;-74
2023/09/01 03:30:44;;;;;;;8.38;7.55;;;;;;;-140.66;100.00;55571.53;5114298;28;20034;-74
2023/09/01 03:33:31;;;;;;;10.30;8.05;;;;;;;-140.66;100.00;55571.53;5114456;28;20030;-75
2023/09/01 03:36:17;;;;;;;8.85;8.00;;;;;;;-140.66;100.00;55571.53;5100401;28;20465;-74
2023/09/01 03:39:07;;;;;;;8.93;8.02;;;;;;;-140.66;100.00;55571.53;5115185;28;20038;-75
2023/09/01 03:41:53;;;;;;;10.38;7.80;;;;;;;-140.66;100.00;55571.53;5114517;28;20024;-74
2023/09/01 03:44:38;;;;;;;9.35;8.18;;;;;;;-140.66;100.00;55571.53;5114746;28;20138;-74
2023/09/01 03:47:24;;;;;;;8.65;7.85;;;;;;;-140.66;100.00;55571.53;5115388;28;20031;-74
2023/09/01 03:50:10;;;;;;;9.60;7.57;;;;;;;-140.66;100.00;55571.53;5114574;28;20038;-74
2023/09/01 03:52:56;;;;;;;9.02;8.07;;;;;;;-140.66;100.00;55571.53;5113605;28;20024;-74
2023/09/01 03:55:41;;;;;;;9.20;8.27;;;;;;;-140.66;100.00;55571.53;5114684;28;20066;-74
2023/09/01 03:58:27;;;;;;;11.50;8.45;;;;;;;-140.66;100.00;55571.53;5114728;28;20027;-75
2023/09/01 04:01:13;;;;;;;8.68;7.75;;;;;;;-140.66;100.00;55571.53;5114400;28;20104;-75
2023/09/01 04:04:00;;;;;;;10.18;8.15;;;;;;;-140.66;100.00;55571.53;5114491;28;20031;-75
2023/09/01 04:06:45;;;;;;;10.43;8.25;;;;;;;-140.66;100.00;55571.53;5114086;28;20031;-75
2023/09/01 04:09:31;;;;;;;9.48;7.35;;;;;;;-140.66;100.00;55571.53;5114745;28;20023;-73
2023/09/01 04:12:17;;;;;;;8.88;8.00;;;;;;;-140.66;100.00;55571.53;5099817;28;20023;-75
2023/09/01 04:15:03;;;;;;;12.43;8.15;;;;;;;-140.66;100.00;55571.53;5113911;28;20098;-75
2023/09/01 04:17:49;;;;;;;10.30;8.20;;;;;;;-140.66;100.00;55571.53;5099286;28;20372;-75
2023/09/01 04:20:34;;;;;;;8.77;7.88;;;;;;;-140.66;100.00;55571.53;5114431;28;20016;-74
2023/09/01 04:23:20;;;;;;;9.35;8.10;;;;;;;-140.66;100.00;55571.53;5115020;28;20038;-73
2023/09/01 04:26:07;;;;;;;12.10;8.60;;;;;;;-140.66;100.00;55571.53;5113195;28;20127;-74
2023/09/01 04:28:53;;;;;;;15.35;8.55;;;;;;;-140.66;100.00;55571.53;5113894;28;20031;-74
2023/09/01 04:31:39;;;;;;;11.20;8.40;;;;;;;-140.66;100.00;55571.53;5114370;28;20016;-73
2023/09/01 04:34:24;;;;;;;10.90;7.93;;;;;;;-140.66;100.00;55571.53;5113815;28;20020;-75
2023/09/01 04:37:10;;;;;;;11.85;8.25;;;;;;;-140.66;100.00;55571.53;5112614;28;20034;-74
2023/09/01 04:39:56;;;;;;;10.13;8.30;;;;;;;-140.66;100.00;55571.53;5113641;28;20023;-75
2023/09/01 04:42:42;;;;;;;12.50;8.93;;;;;;;-140.66;100.00;55571.53;5113622;28;20024;-74
2023/09/01 04:45:27;;;;;;;10.02;8.88;;;;;;;-140.66;100.00;55571.53;5113516;28;20056;-76
2023/09/01 04:48:13;;;;;;;10.57;8.77;;;;;;;-140.66;100.00;55571.53;5090255;28;20030;-76
2023/09/01 04:51:02;;;;;;;10.13;9.13;;;;;;;-140.66;100.00;55571.53;5099836;28;20027;-74
2023/09/01 04:53:47;;;;;;;11.82;8.80;;;;;;;-140.66;100.00;55571.53;5113374;28;20031;-75
2023/09/01 04:56:33;;;;;;;10.68;9.13;;;;;;;-140.66;100.00;55571.53;5112515;28;20034;-75
2023/09/01 04:59:19;;;;;;;12.30;9.00;;;;;;;-140.66;100.00;55571.53;5114250;28;20035;-74
2023/09/01 05:02:06;;;;;;;11.57;9.30;;;;;;;-140.66;100.00;55571.53;5099391;28;20031;-75
2023/09/01 05:04:51;;;;;;;13.75;10.40;;;;;;;-140.66;100.00;55571.53;5116898;28;20467;-75
2023/09/01 05:07:38;;;;;;;14.65;9.20;;;;;;;-140.66;100.00;55571.53;5118057;28;20030;-76
2023/09/01 05:10:23;;;;;;;16.95;10.60;;;;;;;-140.66;100.00;55571.53;5116919;28;20039;-76
2023/09/01 05:13:09;;;;;;;14.45;9.35;;;;;;;-140.66;100.00;55571.53;5117186;28;20372;-77
2023/09/01 05:15:55;;;;;;;11.95;9.25;;;;;;;-140.66;100.00;55571.53;5103195;28;20115;-75
2023/09/01 05:18:41;;;;;;;16.55;9.95;;;;;;;-140.66;100.00;55571.53;5116284;28;20035;-75
2023/09/01 05:21:27;;;;;;;11.75;8.98;;;;;;;-140.66;100.00;55571.53;5117384;28;20524;-77
2023/09/01 05:24:13;;;;;;;11.20;9.23;;;;;;;-140.66;100.00;55571.53;5117439;28;20415;-77
2023/09/01 05:26:58;;;;;;;16.88;9.18;;;;;;;-140.66;100.00;55571.53;5117710;28;20019;-76
2023/09/01 05:29:45;;;;;;;10.70;9.60;;;;;;;-140.66;100.00;55571.53;5117486;28;20019;-76
2023/09/01 05:32:31;;;;;;;11.75;9.52;;;;;;;-140.66;100.00;55571.53;5117573;28;20031;-76
2023/09/01 05:35:17;;;;;;;10.70;8.95;;;;;;;-140.66;100.00;55571.53;5117294;28;20027;-77
2023/09/01 05:38:03;;;;;;;10.68;9.57;;;;;;;-140.66;100.00;55571.53;5117206;28;20114;-77
2023/09/01 05:40:56;;;;;;;11.52;9.45;;;;;;;-140.66;100.00;55571.53;5102041;28;20027;-77
2023/09/01 05:43:42;;;;;;;10.00;9.00;;;;;;;-140.66;100.00;55571.53;5116824;28;20049;-77
2023/09/01 05:46:28;;;;;;;15.35;9.90;;;;;;;-140.66;100.00;55571.53;5102602;28;20027;-75
2023/09/01 05:49:14;;;;;;;14.88;9.40;;;;;;;-140.66;100.00;55571.53;5117225;28;20456;-76
2023/09/01 05:52:01;;;;;;;10.18;9.13;;;;;;;-140.66;100.00;55571.53;5117258;28;20114;-75
2023/09/01 05:54:47;;;;;;;11.60;8.50;;;;;;;-140.66;100.00;55571.53;5102676;28;20024;-73
2023/09/01 05:57:32;;;;;;;10.57;9.18;;;;;;;-140.66;100.00;55571.53;5115619;28;20027;-72
2023/09/01 06:00:18;;;;;;;11.40;9.13;;;;;;;-140.66;100.00;55571.53;5116866;28;20028;-73
2023/09/01 06:03:04;;;;;;;10.27;9.18;;;;;;;-140.66;100.00;55571.53;5102130;28;20038;-75
2023/09/01 06:05:50;;;;;;;11.93;8.80;;;;;;;-140.66;100.00;55571.53;5101630;28;20100;-73
2023/09/01 06:08:36;;;;;;;12.02;9.05;;;;;;;-140.66;100.00;55571.53;5116197;28;20334;-73
2023/09/01 06:11:22;;;;;;;12.13;9.77;;;;;;;-140.66;100.00;55571.53;5116974;28;20460;-73
2023/09/01 06:14:08;;;;;;;11.02;9.40;;;;;;;-140.66;100.00;55571.53;5101478;28;20031;-73
2023/09/01 06:16:53;;;;;;;13.23;9.05;;;;;;;-140.66;100.00;55571.53;5114826;28;20061;-73
2023/09/01 06:19:39;;;;;;;10.57;9.07;;;;;;;-140.66;100.00;55571.53;5116607;28;20024;-73
2023/09/01 06:22:25;;;;;;;11.05;9.00;;;;;;;-140.66;100.00;55571.53;5115549;28;20088;-74
2023/09/01 06:25:11;;;;;;;13.65;8.90;;;;;;;-140.66;100.00;55571.53;5116769;28;20023;-73
2023/09/01 06:27:56;;;;;;;10.57;9.07;;;;;;;-140.66;100.00;55571.53;5115694;28;20382;-74
2023/09/01 06:30:42;;;;;;;10.25;8.50;;;;;;;-140.66;100.00;55571.53;5101451;28;20506;-73
2023/09/01 06:33:28;;;;;;;10.73;8.55;;;;;;;-140.66;100.00;55571.53;5115635;28;20120;-74
2023/09/01 06:36:14;;;;;;;12.27;8.48;;;;;;;-140.66;100.00;55571.53;5116414;28;20035;-74
2023/09/01 06:39:00;;;;;;;10.90;8.77;;;;;;;-140.66;100.00;55571.53;5116862;28;20066;-74
2023/09/01 06:41:46;;;;;;;11.80;9.05;;;;;;;-140.66;100.00;55571.53;5116890;28;20038;-75
2023/09/01 06:44:32;;;;;;;17.35;9.15;;;;;;;-140.66;100.00;55571.53;5100990;28;20039;-74
2023/09/01 06:47:17;;;;;;;15.27;8.90;;;;;;;-140.66;100.00;55571.53;5116816;28;20464;-73
2023/09/01 06:50:05;;;;;;;11.48;8.68;;;;;;;-140.66;100.00;55571.53;5115299;28;20050;-74
2023/09/01 06:52:51;;;;;;;10.93;8.38;;;;;;;-140.66;100.00;55571.53;5100508;28;20058;-74
2023/09/01 06:55:36;;;;;;;16.23;8.88;;;;;;;-140.66;100.00;55571.53;5113872;28;20478;-74
2023/09/01 06:58:22;;;;;;;8.80;7.85;;;;;;;-140.66;100.00;55571.53;5115259;28;20386;-74
2023/09/01 07:01:10;;;;;;;10.73;8.48;;;;;;;-140.66;100.00;55571.53;5116191;28;20027;-74
2023/09/01 07:03:55;;;;;;;18.55;8.18;;;;;;;-140.66;100.00;55571.53;5114523;28;20028;-73
2023/09/01 07:06:41;;;;;;;10.98;8.32;;;;;;;-140.66;100.00;55571.53;5115763;28;20023;-75
2023/09/01 07:09:27;;;;;;;10.35;7.65;;;;;;;-140.66;100.00;55571.53;5114387;28;20027;-75
2023/09/01 07:12:13;;;;;;;12.18;7.22;;;;;;;-140.66;100.00;55571.53;5114927;28;20043;-74
2023/09/01 07:14:58;;;;;;;10.75;7.68;;;;;;;-140.66;100.00;55571.53;5115059;28;20019;-75
2023/09/01 07:17:44;;;;;;;11.18;7.50;;;;;;;-140.66;100.00;55571.53;5115403;28;20342;-74
2023/09/01 07:20:30;;;;;;;8.48;6.97;;;;;;;-140.66;100.00;55571.53;5115480;28;20020;-74
2023/09/01 07:23:16;;;;;;;10.73;7.35;;;;;;;-140.66;100.00;55571.53;5114428;28;20441;-75
2023/09/01 07:26:03;;;;;;;10.63;7.50;;;;;;;-140.66;100.00;55571.53;5100137;28;20046;-74
2023/09/01 07:28:49;;;;;;;11.85;7.70;;;;;;;-140.66;100.00;55571.53;5114343;28;20061;-75
2023/09/01 07:31:35;;;;;;;15.88;7.38;;;;;;;-140.66;100.00;55571.53;5114309;28;20039;-74
2023/09/01 07:34:21;;;;;;;10.38;7.30;;;;;;;-140.66;100.00;55571.53;5113928;28;20475;-75
2023/09/01 07:37:07;;;;;;;10.77;6.72;;;;;;;-140.66;100.00;55571.53;5114647;28;20456;-75
2023/09/01 07:39:52;;;;;;;12.38;7.15;;;;;;;-140.66;100.00;55571.53;5114589;28;20032;-74
2023/09/01 07:42:38;;;;;;;9.55;6.93;;;;;;;-140.66;100.00;55571.53;5099670;28;20037;-74
2023/09/01 07:45:24;;;;;;;9.45;6.85;;;;;;;-140.66;100.00;55571.53;5115010;28;20426;-74
2023/09/01 07:48:10;;;;;;;7.70;6.90;;;;;;;-140.66;100.00;55571.53;5113984;28;20085;-75
2023/09/01 07:50:56;;;;;;;8.98;7.07;;;;;;;-140.66;100.00;55571.53;5113649;28;20023;-75
2023/09/01 07:53:41;;;;;;;8.45;6.85;;;;;;;-140.66;100.00;55571.53;5113770;28;20092;-75
2023/09/01 07:56:27;;;;;;;12.60;7.15;;;;;;;-140.66;100.00;55571.53;5100770;28;20035;-77
2023/09/01 07:59:13;;;;;;;11.05;6.63;;;;;;;-140.66;100.00;55571.53;5114193;28;20024;-74
2023/09/01 08:01:59;;;;;;;8.93;6.07;;;;;;;-140.66;100.00;55571.53;5113183;28;20084;-74
2023/09/01 08:04:44;;;;;;;8.10;6.75;;;;;;;-140.66;100.00;55571.53;5099391;28;20030;-75
2023/09/01 08:07:30;;;;;;;10.38;6.70;;;;;;;-140.66;100.00;55571.53;5114449;28;20019;-75
2023/09/01 08:10:16;;;;;;;8.57;6.57;;;;;;;-140.66;100.00;55571.53;5114463;28;20185;-75
2023/09/01 08:13:02;;;;;;;10.32;6.65;;;;;;;-140.66;100.00;55571.53;5113866;28;20030;-75
2023/09/01 08:15:48;;;;;;;8.98;7.10;;;;;;;-140.66;100.00;55571.53;5113068;28;20423;-75
2023/09/01 08:18:34;;;;;;;13.60;7.10;;;;;;;-140.66;100.00;55571.53;5115253;28;20046;-75
2023/09/01 08:21:20;;;;;;;7.18;6.18;;;;;;;-140.66;100.00;55571.53;5114109;28;20034;-75
2023/09/01 08:24:06;;;;;;;9.93;6.25;;;;;;;-140.66;100.00;55571.53;5113651;28;20128;-75
2023/09/01 08:26:52;;;;;;;7.75;6.32;;;;;;;-140.66;100.00;55571.53;5112678;28;20099;-74
2023/09/01 08:29:38;;;;;;;7.22;6.20;;;;;;;-140.66;100.00;55571.53;5099911;28;20016;-75
2023/09/01 08:32:24;;;;;;;12.57;5.95;;;;;;;-140.66;100.00;55571.53;5099739;28;20034;-74
2023/09/01 08:35:14;;;;;;;6.57;5.88;;;;;;;-140.66;100.00;55571.53;5113931;28;20035;-74
2023/09/01 08:38:00;;;;;;;11.70;5.93;;;;;;;-140.66;100.00;55571.53;5113492;28;20049;-74
2023/09/01 08:40:48;;;;;;;8.35;6.30;;;;;;;-140.66;100.00;55571.53;5112384;28;20027;-74
2023/09/01 08:43:36;;;;;;;9.93;5.80;;;;;;;-140.66;100.00;55571.53;5112671;28;20038;-74
2023/09/01 08:46:22;;;;;;;8.68;7.53;;;;;;;-140.66;100.00;55571.53;5113228;28;20133;-73
2023/09/01 08:49:09;;;;;;;11.70;6.07;;;;;;;-140.66;100.00;55571.53;5098792;28;20046;-74
2023/09/01 08:51:56;;;;;;;11.38;5.70;;;;;;;-140.66;100.00;55571.53;5114099;28;20101;-75
2023/09/01 08:54:42;;;;;;;10.05;6.00;;;;;;;-140.66;100.00;55571.53;5113590;28;20137;-74
2023/09/01 08:57:28;;;;;;;6.38;5.55;;;;;;;-140.66;100.00;55571.53;5112242;28;20464;-74
2023/09/01 09:00:14;;;;;;;7.53;5.70;;;;;;;-140.66;100.00;55571.53;5113220;28;20364;-74
2023/09/01 09:03:00;;;;;;;7.68;5.55;;;;;;;-140.66;100.00;55571.53;5112654;28;20043;-75
2023/09/01 09:05:46;;;;;;;6.38;4.90;;;;;;;-140.66;100.00;55571.53;5098884;28;20027;-74
2023/09/01 09:08:34;;;;;;;16.15;6.03;;;;;;;-140.66;100.00;55571.53;5113850;28;20023;-74
2023/09/01 09:11:20;;;;;;;5.82;4.95;;;;;;;-140.66;100.00;55571.53;5113378;28;20075;-74
2023/09/01 09:14:06;;;;;;;8.52;5.35;;;;;;;-140.66;100.00;55571.53;5112788;28;20177;-75
2023/09/01 09:16:54;;;;;;;7.65;4.63;;;;;;;-140.66;100.00;55571.53;5112390;28;20039;-74
2023/09/01 09:19:51;;;;;;;7.05;5.22;;;;;;;-140.66;100.00;55571.53;5098301;28;20415;-74
2023/09/01 09:22:54;;;;;;;10.93;5.28;;;;;;;-140.66;100.00;55571.53;5113813;28;20035;-74
2023/09/01 09:25:39;;;;;;;8.93;5.43;;;;;;;-140.66;100.00;55571.53;5113147;28;20361;-73
2023/09/01 09:28:25;;;;;;;11.35;5.10;;;;;;;-140.66;100.00;55571.53;5114313;28;20038;-74
2023/09/01 09:31:12;;;;;;;12.35;5.38;;;;;;;-140.66;100.00;55571.53;5112271;28;20020;-75
2023/09/01 09:33:57;;;;;;;6.90;5.28;;;;;;;-140.66;100.00;55571.53;5112464;28;20027;-75
2023/09/01 09:36:48;;;;;;;5.72;5.10;;;;;;;-140.66;100.00;55571.53;5114041;28;20119;-74
2023/09/01 09:39:37;;;;;;;10.35;5.10;;;;;;;-140.66;100.00;55571.53;5112611;28;20028;-73
2023/09/01 09:42:37;;;;;;;14.05;5.40;;;;;;;-140.66;100.00;55571.53;5113023;28;20110;-73
2023/09/01 09:45:31;;;;;;;6.35;4.80;;;;;;;-140.66;100.00;55571.53;5112709;28;20052;-73
2023/09/01 09:48:18;;;;;;;11.60;5.20;;;;;;;-140.66;100.00;55571.53;5113833;28;20121;-73
2023/09/01 09:51:07;;;;;;;12.55;5.00;;;;;;;-140.66;100.00;55571.53;5117505;28;20032;-74
2023/09/01 09:53:55;;;;;;;6.57;4.82;;;;;;;-140.66;100.00;55571.53;5115665;28;20036;-74
2023/09/01 09:56:42;;;;;;;9.60;4.63;;;;;;;-140.66;100.00;55571.53;5116798;28;20062;-73
2023/09/01 09:59:48;;;;;;;12.10;4.90;;;;;;;-140.66;100.00;55571.53;5117760;28;20038;-74
2023/09/01 10:02:42;;;;;;;7.13;4.72;;;;;;;-140.66;100.00;55571.53;5117036;28;20076;-74
2023/09/01 10:05:31;;;;;;;6.03;4.90;;;;;;;-140.66;100.00;55571.53;5116169;28;20133;-75
2023/09/01 10:08:21;;;;;;;7.28;4.85;;;;;;;-140.66;100.00;55571.53;5117616;28;20051;-75
2023/09/01 10:11:08;;;;;;;8.82;5.18;;;;;;;-140.66;100.00;55571.53;5116560;28;20031;-74
2023/09/01 10:13:56;;;;;;;8.82;5.18;;;;;;;-140.66;100.00;55571.53;5117020;28;20035;-73
2023/09/01 10:16:42;;;;;;;11.98;5.82;;;;;;;-140.66;100.00;55571.53;5116249;28;20369;-74
2023/09/01 10:19:28;;;;;;;13.43;5.28;;;;;;;-140.66;100.00;55571.53;5115153;28;20024;-75
2023/09/01 10:22:23;;;;;;;9.52;5.47;;;;;;;-140.66;100.00;55571.53;5115397;28;20035;-74
2023/09/01 10:25:16;;;;;;;6.97;5.13;;;;;;;-140.66;100.00;55571.53;5116488;28;20019;-74
2023/09/01 10:28:05;;;;;;;54.60;7.97;;;;;;;-140.66;100.00;55571.53;5115877;28;20020;-74
2023/09/01 10:30:51;;;;;;;13.95;4.60;;;;;;;-140.66;100.00;55571.53;5101071;28;20389;-73
2023/09/01 10:33:37;;;;;;;9.13;5.40;;;;;;;-140.66;100.00;55571.53;5115561;28;20031;-74
2023/09/01 10:36:23;;;;;;;6.93;4.80;;;;;;;-140.66;100.00;55571.53;5114817;28;20024;-75
2023/09/01 10:39:26;;;;;;;7.50;4.63;;;;;;;-140.66;100.00;55571.53;5102317;28;20027;-75
2023/09/01 10:42:13;;;;;;;12.88;4.82;;;;;;;-140.66;100.00;55571.53;5114768;28;20019;-75
2023/09/01 10:45:05;;;;;;;7.85;4.68;;;;;;;-140.66;100.00;55571.53;5115903;28;20066;-74
2023/09/01 10:47:53;;;;;;;7.20;4.90;;;;;;;-140.66;100.00;55571.53;5115781;28;20353;-75
2023/09/01 10:50:42;;;;;;;5.32;4.68;;;;;;;-140.66;100.00;55571.53;5101414;28;20446;-74
2023/09/01 10:53:31;;;;;;;11.05;4.75;;;;;;;-140.66;100.00;55571.53;5116262;28;20408;-75
2023/09/01 10:56:17;;;;;;;11.82;4.88;;;;;;;-140.66;100.00;55571.53;5100524;28;20104;-74
2023/09/01 10:59:05;;;;;;;6.40;4.70;;;;;;;-140.66;100.00;55571.53;5115916;28;20346;-74
2023/09/01 11:01:51;;;;;;;6.60;4.63;;;;;;;-140.66;100.00;55571.53;5100297;28;20111;-75
2023/09/01 11:04:40;;;;;;;6.10;4.80;;;;;;;-140.66;100.00;55571.53;5115438;28;20031;-75
2023/09/01 11:07:25;;;;;;;14.90;5.32;;;;;;;-140.66;100.00;55571.53;5099857;28;20030;-74
2023/09/01 11:10:25;;;;;;;11.63;4.45;;;;;;;-140.66;100.00;55571.53;5115326;28;20023;-75
2023/09/01 11:13:18;;;;;;;7.63;4.80;;;;;;;-140.66;100.00;55571.53;5100433;28;20027;-74
2023/09/01 11:16:08;;;;;;;7.55;4.82;;;;;;;-140.66;100.00;55571.53;5114122;28;20027;-74
2023/09/01 11:19:01;;;;;;;5.13;4.53;;;;;;;-140.66;100.00;55571.53;5115204;28;20024;-75
2023/09/01 11:21:47;;;;;;;9.52;4.72;;;;;;;-140.66;100.00;55571.53;5115176;28;20117;-74
2023/09/01 11:24:34;;;;;;;7.03;4.65;;;;;;;-140.66;100.00;55571.53;5115640;28;20401;-74
2023/09/01 11:27:19;;;;;;;13.68;5.40;;;;;;;-140.66;100.00;55571.53;5114945;28;20115;-74
2023/09/01 11:30:06;;;;;;;7.10;4.25;;;;;;;-140.66;100.00;55571.53;5114878;28;20039;-75
2023/09/01 11:32:52;;;;;;;7.35;4.60;;;;;;;-140.66;100.00;55571.53;5114105;28;20024;-75
2023/09/01 11:35:38;;;;;;;12.57;5.05;;;;;;;-140.66;100.00;55571.53;5115412;28;20104;-75
2023/09/01 11:38:23;;;;;;;17.02;5.80;;;;;;;-140.66;100.00;55571.53;5113518;28;20115;-75
2023/09/01 11:41:16;;;;;;;6.80;4.32;;;;;;;-140.66;100.00;55571.53;5114646;28;20074;-74
2023/09/01 11:44:02;;;;;;;6.60;4.97;;;;;;;-140.66;100.00;55571.53;5114037;28;20054;-75
2023/09/01 11:46:48;;;;;;;26.23;5.65;;;;;;;-140.66;100.00;55571.53;5099844;28;20038;-75
2023/09/01 11:49:33;;;;;;;9.25;4.97;;;;;;;-140.66;100.00;55571.53;5115329;28;20019;-76
2023/09/01 11:52:19;;;;;;;6.20;5.13;;;;;;;-140.66;100.00;55571.53;5113816;28;20107;-75
2023/09/01 11:55:05;;;;;;;6.20;5.18;;;;;;;-140.66;100.00;55571.53;5114704;28;20020;-76
2023/09/01 11:57:54;;;;;;;25.35;5.90;;;;;;;-140.66;100.00;55571.53;5113722;28;20550;-74
2023/09/01 12:00:40;;;;;;;10.00;4.60;;;;;;;-140.66;100.00;55571.53;5114788;28;20464;-74
2023/09/01 12:03:26;;;;;;;9.23;5.03;;;;;;;-140.66;100.00;55571.53;5113432;28;20369;-75
2023/09/01 12:06:18;;;;;;;9.20;4.65;;;;;;;-140.66;100.00;55571.53;5114980;28;20031;-74
2023/09/01 12:09:18;;;;;;;5.38;4.50;;;;;;;-140.66;100.00;55571.53;5114442;28;20039;-74
2023/09/01 12:12:06;;;;;;;33.65;5.80;;;;;;;-140.66;100.00;55571.53;5098880;28;20032;-73
2023/09/01 12:15:03;;;;;;;8.30;4.50;;;;;;;-140.66;100.00;55571.53;5113448;28;20024;-74
2023/09/01 12:17:49;;;;;;;4.85;4.30;;;;;;;-140.66;100.00;55571.53;5113780;28;20107;-74
2023/09/01 12:20:35;;;;;;;12.38;4.60;;;;;;;-140.66;100.00;55571.53;5113752;28;20034;-74
2023/09/01 12:23:28;;;;;;;5.82;4.22;;;;;;;-140.66;100.00;55571.53;5113081;28;20031;-74
2023/09/01 12:26:15;;;;;;;8.10;4.40;;;;;;;-140.66;100.00;55571.53;5114735;28;20550;-74
2023/09/01 12:29:01;;;;;;;5.80;4.30;;;;;;;-140.66;100.00;55571.53;5114743;28;20027;-75
2023/09/01 12:31:47;;;;;;;6.15;4.10;;;;;;;-140.66;100.00;55571.53;5114586;28;20152;-74
2023/09/01 12:34:32;;;;;;;16.70;4.85;;;;;;;-140.66;100.00;55571.53;5113416;28;20061;-74
2023/09/01 12:37:18;;;;;;;14.35;4.78;;;;;;;-140.66;100.00;55571.53;5113874;28;20024;-75